Time;durP1;ratioP1;P1;durP2;ratioP2;P2;SDS_P1;SDS_P2;PMS_P1;PMS_P2;Temp;Humidity;BMP_temperature;BMP_pressure;BME280_temperature;BME280_humidity;BME280_pressure;Samples;Min_cycle;Max_cycle;Signal;HPM_P1;HPM_P2
2021/10/30 00:01:09;;;;;;;42.80;32.13;;;;;;;11.19;82.48;98743.94;5048574;28;20104;-59
2021/10/30 00:03:34;;;;;;;42.78;32.60;;;;;;;11.16;82.50;98750.22;5053865;28;20152;-59
2021/10/30 00:06:00;;;;;;;48.25;33.38;;;;;;;11.19;82.74;98748.31;5052809;28;20470;-60
2021/10/30 00:08:28;;;;;;;47.40;34.60;;;;;;;11.14;82.46;98733.94;5062878;28;20039;-61
2021/10/30 00:10:54;;;;;;;45.70;32.75;;;;;;;11.27;82.44;98735.41;5056978;28;20024;-60
2021/10/30 00:13:19;;;;;;;45.58;33.83;;;;;;;11.20;82.17;98721.31;5058067;28;20602;-59
2021/10/30 00:15:45;;;;;;;46.95;32.38;;;;;;;11.19;82.81;98719.66;5057278;28;20040;-62
2021/10/30 00:18:11;;;;;;;46.15;32.05;;;;;;;11.13;83.42;98716.72;5041167;28;20017;-59
2021/10/30 00:20:36;;;;;;;45.08;33.13;;;;;;;10.99;83.46;98717.19;5038395;28;20033;-59
2021/10/30 00:23:01;;;;;;;45.05;33.33;;;;;;;10.94;82.97;98694.19;5042931;28;20452;-62
2021/10/30 00:25:27;;;;;;;45.72;33.42;;;;;;;10.73;82.88;98678.84;5043558;28;20155;-59
2021/10/30 00:27:52;;;;;;;50.55;33.28;;;;;;;10.95;83.78;98713.22;5063946;28;20549;-58
2021/10/30 00:30:18;;;;;;;48.55;35.45;;;;;;;10.93;83.64;98708.19;5043115;28;20063;-58
2021/10/30 00:32:43;;;;;;;45.97;33.35;;;;;;;10.73;84.06;98671.03;5043280;28;20375;-59
2021/10/30 00:35:09;;;;;;;49.33;34.75;;;;;;;11.03;84.02;98707.31;5051372;28;20487;-60
2021/10/30 00:37:34;;;;;;;49.17;33.20;;;;;;;10.99;84.21;98698.97;5052383;28;20063;-60
2021/10/30 00:40:00;;;;;;;47.25;31.08;;;;;;;11.00;84.29;98699.78;5063624;28;20371;-60
2021/10/30 00:42:26;;;;;;;46.75;33.42;;;;;;;10.88;84.33;98701.75;5058391;28;20255;-60
2021/10/30 00:44:52;;;;;;;44.53;33.20;;;;;;;11.02;83.49;98697.88;5044563;28;20044;-58
2021/10/30 00:47:17;;;;;;;47.95;32.60;;;;;;;11.06;83.28;98707.84;5047178;28;20024;-60
2021/10/30 00:49:43;;;;;;;43.05;31.65;;;;;;;11.09;83.14;98710.13;5055386;28;20094;-60
2021/10/30 00:52:10;;;;;;;45.15;31.80;;;;;;;11.08;83.37;98708.50;5051151;28;20036;-59
2021/10/30 00:54:37;;;;;;;47.78;32.70;;;;;;;11.08;83.04;98708.50;5041205;28;20043;-60
2021/10/30 00:57:03;;;;;;;44.30;31.80;;;;;;;11.09;82.80;98704.94;5045901;28;20024;-58
2021/10/30 00:59:28;;;;;;;45.03;33.35;;;;;;;10.80;82.87;98660.06;5056561;28;20060;-59
2021/10/30 01:01:54;;;;;;;46.75;33.72;;;;;;;11.08;82.98;98705.91;5041221;28;21852;-58
2021/10/30 01:04:20;;;;;;;42.47;31.45;;;;;;;10.64;82.89;98681.47;5048590;28;20025;-59
2021/10/30 01:06:48;;;;;;;42.25;30.40;;;;;;;11.05;81.99;98719.22;5057641;28;20043;-58
2021/10/30 01:09:14;;;;;;;40.88;29.60;;;;;;;11.08;81.57;98725.91;5035340;28;20024;-60
2021/10/30 01:11:40;;;;;;;40.28;30.35;;;;;;;10.87;81.70;98687.94;5067175;28;20046;-58
2021/10/30 01:14:06;;;;;;;41.83;30.42;;;;;;;11.06;81.94;98726.06;5059554;28;20055;-59
2021/10/30 01:16:32;;;;;;;44.35;31.50;;;;;;;10.97;82.14;98724.31;5059402;28;20499;-59
2021/10/30 01:18:57;;;;;;;50.22;31.85;;;;;;;10.98;82.48;98723.34;5057886;28;20038;-59
2021/10/30 01:21:28;;;;;;;46.50;33.67;;;;;;;11.01;82.53;98712.66;5064888;28;20351;-60
2021/10/30 01:23:53;;;;;;;43.92;32.38;;;;;;;10.87;82.39;98679.31;5047210;28;20032;-59
2021/10/30 01:26:22;;;;;;;41.83;32.55;;;;;;;11.05;82.64;98719.22;5062438;28;20037;-60
2021/10/30 01:28:49;;;;;;;44.90;32.80;;;;;;;10.62;82.68;98673.00;5042823;28;20023;-60
2021/10/30 01:31:15;;;;;;;42.45;32.53;;;;;;;10.95;82.79;98711.47;5055847;28;20277;-59
2021/10/30 01:33:42;;;;;;;44.88;33.75;;;;;;;10.95;82.66;98731.44;5058239;28;20414;-61
2021/10/30 01:36:09;;;;;;;49.35;35.22;;;;;;;10.99;82.85;98735.41;5062844;28;20096;-60
2021/10/30 01:38:36;;;;;;;45.80;33.92;;;;;;;10.99;82.71;98737.16;5068563;28;20113;-61
2021/10/30 01:41:02;;;;;;;45.20;34.08;;;;;;;11.01;82.79;98746.50;5047626;28;20047;-60
2021/10/30 01:43:28;;;;;;;45.88;34.00;;;;;;;10.91;82.63;98737.91;5065928;28;20383;-59
2021/10/30 01:45:53;;;;;;;48.10;34.78;;;;;;;11.00;82.69;98747.44;5065141;28;20594;-60
2021/10/30 01:48:20;;;;;;;45.30;33.95;;;;;;;10.99;82.56;98735.41;5062114;28;20119;-59
2021/10/30 01:50:45;;;;;;;45.03;33.63;;;;;;;10.89;82.71;98738.03;5066890;28;20488;-60
2021/10/30 01:53:10;;;;;;;47.45;33.85;;;;;;;11.02;81.94;98737.69;5062092;28;20051;-59
2021/10/30 01:55:38;;;;;;;48.65;34.97;;;;;;;10.86;82.45;98727.09;5057530;28;20565;-59
2021/10/30 01:58:05;;;;;;;47.55;34.00;;;;;;;10.89;82.53;98745.03;5060476;28;20061;-59
2021/10/30 02:00:30;;;;;;;49.55;35.38;;;;;;;10.89;82.26;98737.22;5060377;28;20024;-58
2021/10/30 02:02:56;;;;;;;46.13;34.65;;;;;;;10.88;82.79;98722.56;5059552;28;20039;-62
2021/10/30 02:05:22;;;;;;;47.83;34.40;;;;;;;10.57;83.27;98658.66;5049055;28;20029;-59
2021/10/30 02:07:47;;;;;;;45.10;33.20;;;;;;;10.85;83.53;98705.47;5066119;28;20028;-58
2021/10/30 02:10:13;;;;;;;48.20;34.67;;;;;;;10.65;83.68;98701.31;5061383;28;20021;-60
2021/10/30 02:12:39;;;;;;;52.08;34.47;;;;;;;10.88;82.62;98701.75;5055209;28;20078;-59
2021/10/30 02:15:06;;;;;;;50.75;34.67;;;;;;;10.91;82.76;98699.69;5063207;28;20040;-61
2021/10/30 02:17:31;;;;;;;49.45;34.55;;;;;;;10.81;83.48;98706.72;5050060;28;20119;-60
2021/10/30 02:19:57;;;;;;;48.42;34.53;;;;;;;10.83;83.63;98702.19;5064155;28;20036;-60
2021/10/30 02:22:23;;;;;;;51.63;35.95;;;;;;;10.77;84.01;98708.00;5064248;28;20107;-60
2021/10/30 02:24:49;;;;;;;47.25;34.50;;;;;;;10.49;84.01;98655.94;5062767;28;20055;-59
2021/10/30 02:27:14;;;;;;;51.67;36.13;;;;;;;10.75;84.49;98702.94;5042292;28;20148;-63
2021/10/30 02:29:40;;;;;;;53.90;35.95;;;;;;;10.75;84.37;98705.53;5066680;28;20532;-61
2021/10/30 02:32:06;;;;;;;50.05;35.53;;;;;;;10.73;84.26;98696.22;5045337;28;20047;-60
2021/10/30 02:34:31;;;;;;;50.28;35.28;;;;;;;10.80;83.67;98706.88;5043601;28;20535;-60
2021/10/30 02:36:57;;;;;;;49.58;36.00;;;;;;;10.75;84.27;98699.47;5059377;28;20052;-59
2021/10/30 02:39:24;;;;;;;52.95;36.28;;;;;;;10.74;84.63;98696.06;5050253;28;20032;-60
2021/10/30 02:41:49;;;;;;;48.58;36.08;;;;;;;10.73;84.49;98697.06;5068989;28;20033;-60
2021/10/30 02:44:15;;;;;;;50.67;36.70;;;;;;;10.69;84.50;98692.25;5068237;28;20031;-62
2021/10/30 02:46:40;;;;;;;49.55;36.00;;;;;;;10.63;85.08;98705.84;5069634;28;20028;-59
2021/10/30 02:49:06;;;;;;;50.17;35.42;;;;;;;10.34;85.25;98657.38;5068443;28;20494;-58
2021/10/30 02:51:32;;;;;;;48.00;34.58;;;;;;;10.54;85.31;98692.72;5060038;28;20476;-60
2021/10/30 02:53:57;;;;;;;46.58;34.78;;;;;;;10.30;85.41;98677.59;5051106;28;20044;-60
2021/10/30 02:56:23;;;;;;;47.80;34.17;;;;;;;10.46;85.49;98691.78;5078692;28;20034;-58
2021/10/30 02:58:48;;;;;;;46.92;34.15;;;;;;;10.23;85.07;98654.91;5069735;28;20487;-59
2021/10/30 03:01:14;;;;;;;45.85;33.80;;;;;;;10.61;84.57;98687.78;5062025;28;20033;-60
2021/10/30 03:03:40;;;;;;;52.65;35.55;;;;;;;10.50;84.81;98674.97;5068354;28;20028;-59
2021/10/30 03:06:06;;;;;;;46.75;35.40;;;;;;;10.60;84.75;98680.13;5062653;28;20545;-59
2021/10/30 03:08:32;;;;;;;48.95;35.17;;;;;;;10.36;85.64;98684.84;5073521;28;20032;-61
2021/10/30 03:10:57;;;;;;;49.13;36.28;;;;;;;10.30;85.65;98680.19;5063528;28;20505;-59
2021/10/30 03:13:23;;;;;;;49.40;34.83;;;;;;;10.32;85.53;98680.09;5063126;28;20112;-59
2021/10/30 03:15:48;;;;;;;51.13;34.67;;;;;;;10.45;84.83;98671.97;5050507;28;20111;-60
2021/10/30 03:18:14;;;;;;;51.97;36.10;;;;;;;10.39;84.60;98658.59;5056937;28;20502;-60
2021/10/30 03:20:39;;;;;;;49.83;34.85;;;;;;;10.38;85.00;98664.72;5057293;28;20105;-60
2021/10/30 03:23:04;;;;;;;50.00;36.40;;;;;;;10.44;85.01;98658.16;5055641;28;20032;-61
2021/10/30 03:25:30;;;;;;;51.63;35.22;;;;;;;10.41;85.34;98655.84;5053072;28;20055;-62
2021/10/30 03:27:55;;;;;;;48.63;35.88;;;;;;;10.47;85.12;98647.47;5052783;28;20573;-59
2021/10/30 03:30:21;;;;;;;57.30;39.17;;;;;;;10.42;84.94;98647.06;5046156;28;20036;-59
2021/10/30 03:32:47;;;;;;;50.38;36.67;;;;;;;10.34;85.78;98641.78;5044014;28;20040;-61
2021/10/30 03:35:12;;;;;;;51.90;36.90;;;;;;;10.42;86.25;98635.84;5057562;28;20100;-59
2021/10/30 03:37:38;;;;;;;50.72;36.05;;;;;;;10.17;86.01;98584.38;5059569;28;20017;-59
2021/10/30 03:40:06;;;;;;;50.63;36.25;;;;;;;10.44;85.30;98637.38;5058432;28;20288;-60
2021/10/30 03:42:32;;;;;;;48.63;35.47;;;;;;;10.03;85.04;98592.63;5057655;28;20102;-60
2021/10/30 03:44:58;;;;;;;52.33;35.78;;;;;;;10.45;83.96;98630.38;5042366;28;20028;-59
2021/10/30 03:47:24;;;;;;;50.63;35.47;;;;;;;10.36;84.51;98632.06;5056514;28;20036;-62
2021/10/30 03:49:49;;;;;;;50.25;35.45;;;;;;;10.28;85.22;98644.94;5063065;28;20028;-62
2021/10/30 03:52:15;;;;;;;52.28;36.35;;;;;;;10.28;85.36;98644.94;5000268;28;20036;-60
2021/10/30 03:54:40;;;;;;;54.35;38.20;;;;;;;10.30;85.20;98630.81;5054674;28;20090;-59
2021/10/30 03:57:06;;;;;;;48.97;36.38;;;;;;;10.29;85.69;98631.75;5061616;28;20039;-61
2021/10/30 03:59:32;;;;;;;50.75;35.83;;;;;;;10.36;85.52;98648.47;5051960;28;20046;-60
2021/10/30 04:01:58;;;;;;;50.30;35.13;;;;;;;10.34;85.69;98652.97;5051651;28;20650;-61
2021/10/30 04:04:24;;;;;;;49.58;36.78;;;;;;;10.36;85.79;98650.25;5052998;28;20111;-61
2021/10/30 04:06:49;;;;;;;53.42;36.78;;;;;;;10.26;86.08;98644.22;5039505;28;20024;-60
2021/10/30 04:09:15;;;;;;;52.63;35.97;;;;;;;10.22;86.70;98640.28;5059757;28;20103;-61
2021/10/30 04:11:41;;;;;;;49.78;36.03;;;;;;;10.26;86.20;98649.41;5059525;28;20486;-59
2021/10/30 04:14:06;;;;;;;50.85;35.95;;;;;;;10.07;85.69;98613.94;5057013;28;20073;-60
2021/10/30 04:16:34;;;;;;;49.45;35.33;;;;;;;10.37;85.79;98664.91;5059105;28;20024;-59
2021/10/30 04:19:00;;;;;;;50.20;34.50;;;;;;;10.34;85.77;98662.56;5054093;28;20036;-60
2021/10/30 04:21:26;;;;;;;49.45;34.85;;;;;;;10.43;84.67;98656.53;5036517;28;20918;-62
2021/10/30 04:23:52;;;;;;;46.97;34.38;;;;;;;10.35;84.60;98657.22;5006940;28;20040;-59
2021/10/30 04:26:18;;;;;;;46.75;35.10;;;;;;;10.36;85.12;98663.25;5043775;28;20111;-59
2021/10/30 04:28:43;;;;;;;48.00;35.30;;;;;;;10.27;84.95;98659.69;5055597;28;20484;-59
2021/10/30 04:31:10;;;;;;;50.65;35.70;;;;;;;10.36;84.83;98660.66;5057402;28;20029;-60
2021/10/30 04:33:41;;;;;;;51.13;35.28;;;;;;;10.37;84.75;98664.91;5060594;28;20044;-62
2021/10/30 04:36:14;;;;;;;49.58;35.95;;;;;;;10.06;84.90;98607.09;5054569;28;20036;-59
2021/10/30 04:38:39;;;;;;;49.05;35.75;;;;;;;10.35;85.48;98651.22;5021266;28;20389;-63
2021/10/30 04:41:05;;;;;;;50.05;35.35;;;;;;;10.35;84.94;98662.44;5021994;28;20037;-61
2021/10/30 04:43:30;;;;;;;48.78;35.92;;;;;;;10.22;85.34;98651.47;5054230;28;20035;-61
2021/10/30 04:45:56;;;;;;;50.08;36.17;;;;;;;10.26;85.34;98654.63;5055989;28;20078;-60
2021/10/30 04:48:21;;;;;;;52.08;35.28;;;;;;;10.34;85.10;98660.78;5053595;28;20577;-59
2021/10/30 04:50:46;;;;;;;48.95;35.72;;;;;;;10.03;85.13;98608.19;5050193;28;20077;-62
2021/10/30 04:53:12;;;;;;;52.33;35.75;;;;;;;10.38;85.16;98664.72;5051980;28;20153;-58
2021/10/30 04:55:37;;;;;;;54.38;36.08;;;;;;;10.46;85.33;98660.59;5033911;28;20511;-60
2021/10/30 04:58:03;;;;;;;51.42;34.97;;;;;;;10.38;85.59;98646.53;5042707;28;20391;-59
2021/10/30 05:00:28;;;;;;;46.80;34.70;;;;;;;10.34;86.51;98655.59;5052248;28;20060;-60
2021/10/30 05:02:54;;;;;;;50.08;35.28;;;;;;;10.13;86.37;98647.97;5060399;28;20056;-60
2021/10/30 05:05:19;;;;;;;52.03;35.67;;;;;;;10.14;85.72;98647.00;5053459;28;20754;-60
2021/10/30 05:07:44;;;;;;;51.13;37.33;;;;;;;10.20;85.77;98656.00;5045864;28;20108;-60
2021/10/30 05:10:10;;;;;;;49.40;36.10;;;;;;;9.96;85.64;98599.31;5044267;28;20047;-60
2021/10/30 05:12:35;;;;;;;51.95;36.67;;;;;;;10.27;85.23;98635.47;5044777;28;20029;-61
2021/10/30 05:15:01;;;;;;;51.90;37.38;;;;;;;10.05;85.40;98595.88;5054254;28;20446;-62
2021/10/30 05:17:26;;;;;;;50.17;35.97;;;;;;;10.29;86.53;98656.94;5060062;28;20098;-60
2021/10/30 05:19:52;;;;;;;55.67;38.33;;;;;;;10.26;86.12;98663.25;5053562;28;20600;-59
2021/10/30 05:22:17;;;;;;;52.72;36.72;;;;;;;10.30;85.87;98658.59;5047655;28;20442;-60
2021/10/30 05:24:43;;;;;;;57.55;37.38;;;;;;;9.98;85.50;98621.63;5054833;28;20693;-59
2021/10/30 05:27:08;;;;;;;53.95;37.75;;;;;;;10.16;86.78;98663.25;5043693;28;20043;-60
2021/10/30 05:29:35;;;;;;;54.58;38.75;;;;;;;10.20;86.13;98666.41;5053904;28;20472;-62
2021/10/30 05:32:00;;;;;;;50.70;37.00;;;;;;;10.33;85.81;98673.91;5058684;28;20028;-61
2021/10/30 05:34:25;;;;;;;54.30;38.13;;;;;;;10.02;85.75;98622.16;5042876;28;20031;-60
2021/10/30 05:36:53;;;;;;;55.78;39.45;;;;;;;10.31;86.11;98675.84;5056194;28;20086;-59
2021/10/30 05:39:19;;;;;;;51.28;38.10;;;;;;;10.22;85.76;98666.25;5052229;28;20032;-61
2021/10/30 05:41:44;;;;;;;52.42;38.30;;;;;;;10.28;85.52;98670.91;5049341;28;20814;-60
2021/10/30 05:44:11;;;;;;;51.42;37.60;;;;;;;9.90;84.91;98605.91;5051381;28;20028;-59
2021/10/30 05:46:37;;;;;;;52.50;37.53;;;;;;;10.33;85.58;98669.56;5059292;28;20028;-60
2021/10/30 05:49:04;;;;;;;55.22;38.17;;;;;;;10.34;85.24;98668.56;5044584;28;20417;-59
2021/10/30 05:51:30;;;;;;;49.78;37.13;;;;;;;10.32;85.58;98670.50;5052548;28;20067;-60
2021/10/30 05:53:56;;;;;;;54.63;37.50;;;;;;;10.07;85.50;98616.53;5054901;28;20608;-60
2021/10/30 05:56:22;;;;;;;55.28;38.70;;;;;;;10.37;85.46;98668.31;5059336;28;20029;-61
2021/10/30 05:58:47;;;;;;;52.97;37.42;;;;;;;10.33;85.42;98663.50;5057537;28;20140;-61
2021/10/30 06:01:12;;;;;;;51.60;38.67;;;;;;;10.45;84.76;98666.78;5036516;28;20029;-59
2021/10/30 06:03:38;;;;;;;52.47;37.13;;;;;;;10.33;84.14;98629.72;5034941;28;20112;-62
2021/10/30 06:06:04;;;;;;;51.67;37.28;;;;;;;10.51;84.61;98667.03;5050973;28;20582;-62
2021/10/30 06:08:30;;;;;;;53.60;38.42;;;;;;;10.50;85.02;98662.78;5050239;28;20055;-60
2021/10/30 06:10:55;;;;;;;52.90;37.72;;;;;;;10.52;85.10;98660.06;5059326;28;20150;-62
2021/10/30 06:13:21;;;;;;;55.90;38.47;;;;;;;10.48;85.01;98662.13;5031772;28;20045;-60
2021/10/30 06:15:46;;;;;;;50.92;36.38;;;;;;;10.49;84.68;98661.13;5039103;28;20029;-59
2021/10/30 06:18:12;;;;;;;54.42;37.20;;;;;;;10.56;84.46;98656.19;5062382;28;20123;-60
2021/10/30 06:20:37;;;;;;;55.00;39.17;;;;;;;10.45;84.63;98648.56;5056462;28;20035;-63
2021/10/30 06:23:03;;;;;;;53.80;38.03;;;;;;;10.28;84.69;98630.16;5041673;28;20784;-59
2021/10/30 06:25:29;;;;;;;51.08;37.70;;;;;;;10.50;84.94;98670.59;5044602;28;20943;-59
2021/10/30 06:27:55;;;;;;;53.95;37.88;;;;;;;10.52;85.36;98666.06;5050236;28;20519;-60
2021/10/30 06:30:21;;;;;;;51.13;36.60;;;;;;;10.53;85.10;98656.47;5044465;28;20108;-60
2021/10/30 06:32:46;;;;;;;51.95;37.50;;;;;;;10.53;84.99;98659.06;5052934;28;20071;-60
2021/10/30 06:35:11;;;;;;;52.60;37.75;;;;;;;10.53;84.95;98659.91;5056058;28;20043;-59
2021/10/30 06:37:39;;;;;;;52.03;37.42;;;;;;;10.38;84.92;98623.13;5056895;28;20537;-60
2021/10/30 06:40:09;;;;;;;53.83;37.13;;;;;;;10.59;84.55;98650.72;5073043;28;20134;-61
2021/10/30 06:42:35;;;;;;;55.15;39.13;;;;;;;10.63;84.59;98651.25;5067781;28;20070;-60
2021/10/30 06:45:00;;;;;;;53.67;36.88;;;;;;;10.59;84.02;98650.72;5066837;28;20032;-60
2021/10/30 06:47:26;;;;;;;56.97;37.97;;;;;;;10.68;84.69;98656.84;5061551;28;20028;-59
2021/10/30 06:49:53;;;;;;;53.70;37.55;;;;;;;10.61;84.38;98653.19;5068518;28;20495;-59
2021/10/30 06:52:18;;;;;;;59.92;36.42;;;;;;;10.55;84.87;98644.97;5065377;28;20024;-60
2021/10/30 06:54:44;;;;;;;53.85;37.63;;;;;;;10.50;84.94;98646.38;5064435;28;20043;-59
2021/10/30 06:57:09;;;;;;;50.53;38.25;;;;;;;10.60;84.65;98661.94;5066188;28;20047;-61
2021/10/30 06:59:35;;;;;;;53.47;37.97;;;;;;;10.69;84.77;98674.06;5060948;28;20020;-61
2021/10/30 07:02:03;;;;;;;50.67;36.40;;;;;;;10.77;83.84;98682.78;5045638;28;20070;-60
2021/10/30 07:04:28;;;;;;;53.97;37.17;;;;;;;10.57;84.36;98648.25;5066443;28;20037;-60
2021/10/30 07:06:53;;;;;;;54.15;37.80;;;;;;;10.82;84.46;98691.94;5061556;28;20028;-61
2021/10/30 07:09:19;;;;;;;53.25;36.83;;;;;;;10.63;84.28;98664.25;5062231;28;20035;-61
2021/10/30 07:11:45;;;;;;;56.10;37.63;;;;;;;10.80;84.73;98704.28;5059561;28;20033;-60
2021/10/30 07:14:12;;;;;;;56.03;37.97;;;;;;;10.77;84.63;98711.41;5070902;28;20029;-60
2021/10/30 07:16:37;;;;;;;57.80;39.33;;;;;;;10.48;84.79;98656.09;5040518;28;20087;-60
2021/10/30 07:19:02;;;;;;;53.92;37.80;;;;;;;10.92;83.90;98688.31;5073765;28;20032;-60
2021/10/30 07:21:28;;;;;;;50.75;36.70;;;;;;;11.07;83.06;98698.25;5052144;28;20119;-61
2021/10/30 07:23:54;;;;;;;58.25;39.67;;;;;;;10.72;83.22;98659.00;5064143;28;20494;-62
2021/10/30 07:26:20;;;;;;;63.60;41.75;;;;;;;11.04;83.29;98707.16;5029010;28;20035;-60
2021/10/30 07:28:45;;;;;;;56.97;38.35;;;;;;;11.05;82.82;98708.81;5059172;28;20119;-61
2021/10/30 07:31:11;;;;;;;56.15;39.10;;;;;;;10.85;82.88;98715.06;5077715;28;20421;-59
2021/10/30 07:33:36;;;;;;;53.67;38.55;;;;;;;10.85;83.53;98710.69;5052682;28;20067;-60
2021/10/30 07:36:02;;;;;;;54.17;38.25;;;;;;;10.66;82.88;98671.75;5060505;28;20044;-59
2021/10/30 07:38:27;;;;;;;55.70;37.83;;;;;;;10.99;82.67;98704.19;5058128;28;20024;-61
2021/10/30 07:40:53;;;;;;;55.13;38.78;;;;;;;10.78;83.06;98663.59;5044040;28;20108;-61
2021/10/30 07:43:18;;;;;;;56.50;39.05;;;;;;;10.99;83.17;98704.19;5038310;28;20032;-60
2021/10/30 07:45:44;;;;;;;53.70;38.22;;;;;;;11.01;83.10;98707.47;5066841;28;20028;-62
2021/10/30 07:48:09;;;;;;;55.50;38.88;;;;;;;11.16;82.75;98707.78;5060489;28;20037;-60
2021/10/30 07:50:35;;;;;;;53.17;38.35;;;;;;;11.19;82.18;98714.47;5063125;28;20028;-60
2021/10/30 07:53:01;;;;;;;57.35;38.00;;;;;;;10.96;83.05;98688.84;5052269;28;20028;-61
2021/10/30 07:55:27;;;;;;;57.25;38.00;;;;;;;11.25;81.92;98725.13;5064924;28;20025;-60
2021/10/30 07:57:52;;;;;;;54.80;39.13;;;;;;;11.27;82.78;98723.19;5022063;28;20185;-60
2021/10/30 08:00:18;;;;;;;56.72;37.78;;;;;;;11.15;83.12;98695.72;5042541;28;20139;-61
2021/10/30 08:02:44;;;;;;;54.03;37.72;;;;;;;11.28;82.93;98717.03;5060962;28;20043;-61
2021/10/30 08:05:11;;;;;;;56.88;38.72;;;;;;;11.25;82.96;98704.31;5063553;28;20028;-61
2021/10/30 08:07:36;;;;;;;53.78;38.40;;;;;;;11.26;82.40;98718.13;5043501;28;20089;-61
2021/10/30 08:10:07;;;;;;;55.38;37.15;;;;;;;11.28;82.07;98716.19;5068613;28;20514;-62
2021/10/30 08:12:35;;;;;;;52.78;36.95;;;;;;;11.45;81.42;98720.63;5064042;28;20047;-64
2021/10/30 08:15:02;;;;;;;52.22;37.40;;;;;;;11.49;80.32;98716.75;5008833;28;20036;-62
2021/10/30 08:17:28;;;;;;;54.50;37.50;;;;;;;11.60;80.16;98715.72;5039652;28;20037;-60
2021/10/30 08:19:53;;;;;;;54.42;38.42;;;;;;;11.49;81.07;98716.75;5059906;28;20672;-61
2021/10/30 08:22:20;;;;;;;52.03;37.13;;;;;;;11.52;81.08;98718.25;5045083;28;20143;-62
2021/10/30 08:24:46;;;;;;;52.25;36.53;;;;;;;11.54;81.31;98714.53;5060640;28;20025;-60
2021/10/30 08:27:13;;;;;;;49.95;36.22;;;;;;;11.68;80.36;98712.34;5066201;28;20043;-60
2021/10/30 08:29:39;;;;;;;53.35;36.60;;;;;;;11.69;80.43;98719.22;5061700;28;20024;-63
2021/10/30 08:32:06;;;;;;;50.22;36.40;;;;;;;11.49;78.89;98714.13;5059755;28;20039;-60
2021/10/30 08:34:32;;;;;;;49.55;36.13;;;;;;;11.50;78.95;98717.59;5065040;28;20110;-60
2021/10/30 08:36:57;;;;;;;52.15;36.90;;;;;;;11.52;79.33;98710.44;5070148;28;20143;-60
2021/10/30 08:39:22;;;;;;;50.58;36.50;;;;;;;11.58;80.79;98704.63;5066674;28;20793;-59
2021/10/30 08:41:48;;;;;;;52.03;36.50;;;;;;;11.69;81.15;98707.00;5042383;28;20056;-61
2021/10/30 08:44:14;;;;;;;51.97;35.55;;;;;;;11.81;79.43;98693.75;5046496;28;20031;-62
2021/10/30 08:46:40;;;;;;;53.63;36.33;;;;;;;11.72;79.89;98698.91;5061727;28;20071;-62
2021/10/30 08:49:09;;;;;;;53.42;35.08;;;;;;;11.65;80.47;98710.88;5059672;28;20032;-62
2021/10/30 08:51:35;;;;;;;50.85;35.78;;;;;;;11.62;80.17;98716.38;5049216;28;20037;-61
2021/10/30 08:54:00;;;;;;;49.85;34.70;;;;;;;11.67;80.00;98706.34;5052726;28;20568;-62
2021/10/30 08:56:26;;;;;;;48.53;35.28;;;;;;;11.85;78.77;98719.34;5052029;28;20023;-61
2021/10/30 08:58:51;;;;;;;49.30;35.33;;;;;;;11.78;78.93;98722.72;5034851;28;20470;-60
2021/10/30 09:01:17;;;;;;;50.95;35.58;;;;;;;11.65;79.45;98716.09;5059566;28;20033;-59
2021/10/30 09:03:57;;;;;;;47.95;34.72;;;;;;;11.57;79.65;98702.16;5053447;28;20038;-60
2021/10/30 09:06:57;;;;;;;49.25;36.58;;;;;;;11.76;80.28;98728.06;5040017;28;20060;-59
2021/10/30 09:09:24;;;;;;;53.72;36.60;;;;;;;11.87;79.29;98738.25;5051463;28;20024;-60
2021/10/30 09:11:55;;;;;;;52.88;37.42;;;;;;;11.92;79.36;98743.88;5001316;28;20487;-60
2021/10/30 09:14:21;;;;;;;52.35;36.58;;;;;;;11.85;78.67;98729.78;5054356;28;20028;-61
2021/10/30 09:17:15;;;;;;;51.83;36.72;;;;;;;11.89;79.16;98738.91;5056837;28;20489;-62
2021/10/30 09:19:54;;;;;;;51.55;35.35;;;;;;;11.76;77.90;98725.47;5036297;28;20063;-59
2021/10/30 09:22:24;;;;;;;49.38;35.30;;;;;;;11.84;78.42;98737.75;5056820;28;20711;-59
2021/10/30 09:24:55;;;;;;;52.75;34.83;;;;;;;11.92;78.73;98743.88;5051619;28;20075;-60
2021/10/30 09:27:43;;;;;;;48.40;35.22;;;;;;;12.03;77.62;98747.19;5035015;28;20025;-63
2021/10/30 09:30:09;;;;;;;46.78;32.67;;;;;;;12.10;77.05;98749.06;5056581;28;20035;-60
2021/10/30 09:32:34;;;;;;;46.58;33.75;;;;;;;12.16;77.04;98746.84;5056041;28;20032;-60
2021/10/30 09:35:02;;;;;;;48.05;34.53;;;;;;;11.97;76.99;98711.31;5056958;28;20741;-61
2021/10/30 09:37:33;;;;;;;46.15;34.25;;;;;;;12.13;77.33;98736.72;5041468;28;20027;-61
2021/10/30 09:40:23;;;;;;;46.63;34.22;;;;;;;12.19;76.38;98738.69;5044577;28;20540;-60
2021/10/30 09:43:04;;;;;;;48.17;33.70;;;;;;;11.90;76.64;98700.69;5057747;28;20102;-60
2021/10/30 09:45:29;;;;;;;51.33;35.00;;;;;;;12.18;77.32;98737.88;5065444;28;20536;-62
2021/10/30 09:47:59;;;;;;;50.15;35.92;;;;;;;12.20;77.15;98738.53;5056060;28;20033;-62
2021/10/30 09:50:29;;;;;;;49.08;36.13;;;;;;;12.28;77.10;98748.22;5044078;28;20025;-61
2021/10/30 09:52:55;;;;;;;50.20;35.33;;;;;;;12.00;76.90;98716.25;5047069;28;20139;-60
2021/10/30 09:55:26;;;;;;;50.08;35.92;;;;;;;12.27;76.47;98750.00;5073319;28;20020;-61
2021/10/30 09:58:04;;;;;;;50.70;34.50;;;;;;;12.08;76.66;98718.91;5061648;28;20448;-60
2021/10/30 10:00:30;;;;;;;47.40;34.85;;;;;;;12.08;76.91;98716.28;5060110;28;20069;-60
2021/10/30 10:02:58;;;;;;;50.45;35.10;;;;;;;12.32;75.97;98757.38;5056721;28;20044;-61
2021/10/30 10:05:26;;;;;;;50.65;34.17;;;;;;;12.00;76.71;98711.03;5051917;28;20032;-63
2021/10/30 10:07:52;;;;;;;50.70;36.03;;;;;;;12.09;76.37;98716.16;5082161;28;20840;-60
2021/10/30 10:10:19;;;;;;;51.65;35.53;;;;;;;12.27;75.45;98757.00;5055243;28;20645;-60
2021/10/30 10:12:44;;;;;;;49.10;35.45;;;;;;;12.26;75.48;98755.38;5044953;28;20744;-60
2021/10/30 10:15:12;;;;;;;50.60;36.35;;;;;;;12.11;75.66;98729.84;5054756;28;20123;-60
2021/10/30 10:17:38;;;;;;;49.35;35.55;;;;;;;12.00;75.76;98722.28;5045061;28;20056;-59
2021/10/30 10:20:05;;;;;;;48.47;34.90;;;;;;;12.20;75.63;98750.78;5042334;28;20120;-60
2021/10/30 10:22:31;;;;;;;48.05;34.67;;;;;;;12.09;76.06;98755.25;5060660;28;21670;-59
2021/10/30 10:25:22;;;;;;;47.40;35.28;;;;;;;12.17;75.99;98756.28;5043932;28;20039;-60
2021/10/30 10:27:47;;;;;;;48.85;35.58;;;;;;;12.15;75.22;98755.63;5060620;28;20024;-60
2021/10/30 10:30:13;;;;;;;51.75;36.65;;;;;;;12.06;76.37;98752.94;5062927;28;20810;-59
2021/10/30 10:32:38;;;;;;;49.35;35.65;;;;;;;12.06;76.09;98752.94;5063283;28;20055;-59
2021/10/30 10:35:05;;;;;;;52.35;37.17;;;;;;;12.11;75.59;98755.91;5058615;28;20029;-59
2021/10/30 10:37:31;;;;;;;51.00;36.72;;;;;;;12.14;75.69;98744.38;5052757;28;20036;-61
2021/10/30 10:40:01;;;;;;;55.03;37.25;;;;;;;12.04;75.49;98715.78;5045472;28;20141;-59
2021/10/30 10:42:36;;;;;;;52.28;37.03;;;;;;;12.30;75.28;98749.72;5061000;28;20042;-59
2021/10/30 10:45:07;;;;;;;51.63;37.53;;;;;;;12.19;76.03;98715.22;5063604;28;20032;-59
2021/10/30 10:47:35;;;;;;;50.92;36.05;;;;;;;12.35;75.33;98748.44;5059810;28;20090;-64
2021/10/30 10:50:11;;;;;;;53.55;37.45;;;;;;;12.33;76.64;98743.38;5056067;28;20040;-62
2021/10/30 10:53:08;;;;;;;50.35;37.15;;;;;;;12.24;75.57;98741.66;5059911;28;20412;-62
2021/10/30 10:55:45;;;;;;;50.28;36.30;;;;;;;12.23;76.18;98751.28;5061291;28;20027;-60
2021/10/30 10:58:12;;;;;;;53.85;37.03;;;;;;;12.23;75.93;98740.84;5053118;28;20103;-62
2021/10/30 11:00:38;;;;;;;53.10;37.47;;;;;;;12.29;75.85;98740.25;5060467;28;20024;-60
2021/10/30 11:03:03;;;;;;;52.00;36.85;;;;;;;12.32;76.27;98739.13;5062082;28;20119;-60
2021/10/30 11:05:32;;;;;;;52.20;36.75;;;;;;;12.32;76.62;98736.53;5058247;28;20037;-62
2021/10/30 11:07:57;;;;;;;50.42;36.65;;;;;;;12.15;75.97;98717.31;5057668;28;20391;-60
2021/10/30 11:10:25;;;;;;;51.67;36.40;;;;;;;12.20;76.22;98733.34;5064394;28;20039;-62
2021/10/30 11:13:00;;;;;;;51.10;36.63;;;;;;;11.85;76.37;98700.31;5060835;28;20056;-63
2021/10/30 11:15:26;;;;;;;52.90;37.92;;;;;;;12.17;75.86;98748.47;5062587;28;20029;-62